Time;durP1;ratioP1;P1;durP2;ratioP2;P2;SDS_P1;SDS_P2;PMS_P1;PMS_P2;Temp;Humidity;BMP_temperature;BMP_pressure;BME280_temperature;BME280_humidity;BME280_pressure;Samples;Min_cycle;Max_cycle;Signal;HPM_P1;HPM_P2
2023/12/29 00:00:46;;;;;;;27.52;16.77;;;;;;;12.78;67.41;99189.28;5091586;28;20494;-49
2023/12/29 00:03:11;;;;;;;73.45;44.42;;;;;;;12.70;67.45;99185.00;5090393;28;20185;-49
2023/12/29 00:05:37;;;;;;;148.75;101.00;;;;;;;12.79;68.57;99181.13;5091588;28;20035;-49
2023/12/29 00:08:03;;;;;;;52.85;29.60;;;;;;;12.89;66.89;99182.56;5091758;28;20032;-49
2023/12/29 00:10:29;;;;;;;73.57;44.90;;;;;;;12.83;66.90;99194.72;5090442;28;20024;-49
2023/12/29 00:12:54;;;;;;;49.13;30.00;;;;;;;12.78;66.59;99176.91;5090145;28;20032;-49
2023/12/29 00:15:20;;;;;;;35.88;21.88;;;;;;;12.67;66.80;99176.69;5090105;28;20025;-49
2023/12/29 00:17:46;;;;;;;29.80;17.15;;;;;;;12.59;67.44;99188.22;5090396;28;20047;-49
2023/12/29 00:20:12;;;;;;;58.60;33.42;;;;;;;12.59;67.27;99173.22;5091314;28;20028;-49
2023/12/29 00:22:38;;;;;;;61.60;35.97;;;;;;;12.52;67.14;99163.72;5089941;28;20028;-49
2023/12/29 00:25:05;;;;;;;151.02;101.18;;;;;;;12.55;67.37;99160.66;5090299;28;20062;-49
2023/12/29 00:27:31;;;;;;;33.13;20.60;;;;;;;12.64;66.68;99158.69;5089810;28;20051;-49
2023/12/29 00:29:56;;;;;;;49.60;32.88;;;;;;;12.59;66.98;99156.63;5092526;28;20025;-49
2023/12/29 00:32:22;;;;;;;54.30;38.20;;;;;;;12.61;66.89;99159.88;5093728;28;20553;-49
2023/12/29 00:34:48;;;;;;;510.98;220.68;;;;;;;12.58;67.40;99166.34;5095025;28;20028;-50
2023/12/29 00:37:14;;;;;;;103.57;46.92;;;;;;;12.62;67.50;99156.25;5093893;28;20039;-49
2023/12/29 00:39:40;;;;;;;72.72;41.08;;;;;;;12.66;67.21;99146.13;5093634;28;20024;-49
2023/12/29 00:42:06;;;;;;;39.67;22.42;;;;;;;12.69;66.89;99162.28;5093631;28;20056;-49
2023/12/29 00:44:32;;;;;;;30.50;18.13;;;;;;;12.62;67.43;99160.69;5094982;28;20020;-49
2023/12/29 00:46:59;;;;;;;27.20;11.70;;;;;;;12.64;67.40;99148.94;5093523;28;20016;-49
2023/12/29 00:49:25;;;;;;;20.20;11.25;;;;;;;12.57;67.07;99133.13;5093473;28;20016;-49
2023/12/29 00:51:51;;;;;;;45.70;22.13;;;;;;;12.60;67.38;99110.88;5094698;28;20028;-49
2023/12/29 00:54:17;;;;;;;18.08;10.48;;;;;;;12.61;67.51;99109.84;5094662;28;20137;-49
2023/12/29 00:56:49;;;;;;;13.52;7.45;;;;;;;12.52;67.61;99124.22;5094562;28;20059;-49
2023/12/29 00:59:15;;;;;;;21.33;12.73;;;;;;;12.48;67.88;99097.50;5094601;28;20085;-49
2023/12/29 01:01:41;;;;;;;14.52;8.30;;;;;;;12.45;68.47;99100.50;5094512;28;20028;-50
2023/12/29 01:04:07;;;;;;;11.88;6.57;;;;;;;12.39;69.07;99098.69;5093095;28;20525;-49
2023/12/29 01:06:33;;;;;;;13.93;8.63;;;;;;;12.36;69.20;99060.44;5094463;28;20115;-49
2023/12/29 01:08:58;;;;;;;12.45;8.65;;;;;;;12.27;70.18;99102.94;5093415;28;20028;-49
2023/12/29 01:11:24;;;;;;;14.65;8.55;;;;;;;12.24;70.58;99098.91;5093151;28;20127;-47
2023/12/29 01:13:50;;;;;;;11.65;7.57;;;;;;;12.23;70.39;99094.63;5094358;28;20114;-47
2023/12/29 01:16:16;;;;;;;10.88;6.78;;;;;;;12.21;70.60;99085.31;5094614;28;20024;-47
2023/12/29 01:18:41;;;;;;;7.22;5.82;;;;;;;12.17;71.13;99079.66;5093197;28;20032;-47
2023/12/29 01:21:07;;;;;;;7.38;5.57;;;;;;;12.12;71.16;99105.75;5094022;28;20016;-47
2023/12/29 01:23:33;;;;;;;9.45;5.60;;;;;;;12.19;71.27;99120.56;5092649;28;20020;-47
2023/12/29 01:25:58;;;;;;;10.25;7.60;;;;;;;12.18;71.14;99091.81;5092726;28;20035;-47
2023/12/29 01:28:25;;;;;;;10.05;5.65;;;;;;;12.13;71.78;99096.84;5093761;28;20043;-47
2023/12/29 01:30:51;;;;;;;10.82;6.55;;;;;;;12.07;71.67;99087.91;5092961;28;20486;-47
2023/12/29 01:33:17;;;;;;;12.70;7.85;;;;;;;12.03;72.16;99104.31;5093895;28;20020;-47
2023/12/29 01:35:43;;;;;;;6.60;4.78;;;;;;;12.02;72.34;99092.19;5092583;28;20526;-47
2023/12/29 01:38:08;;;;;;;19.30;12.90;;;;;;;12.03;72.15;99125.34;5092560;28;20024;-47
2023/12/29 01:40:46;;;;;;;13.70;9.18;;;;;;;12.13;72.42;99133.69;5093135;28;20020;-47
2023/12/29 01:43:13;;;;;;;6.28;3.97;;;;;;;12.24;71.68;99109.41;5092418;28;20081;-47
2023/12/29 01:45:38;;;;;;;15.68;9.50;;;;;;;12.21;71.96;99125.59;5092431;28;20031;-47
2023/12/29 01:48:05;;;;;;;31.02;18.15;;;;;;;12.27;71.87;99134.50;5093533;28;20464;-47
2023/12/29 01:50:31;;;;;;;46.20;28.05;;;;;;;12.34;71.79;99132.72;5092268;28;20502;-47
2023/12/29 01:52:59;;;;;;;21.75;13.32;;;;;;;12.47;71.11;99129.28;5093570;28;20047;-47
2023/12/29 01:55:26;;;;;;;8.50;4.43;;;;;;;12.47;70.86;99143.25;5093366;28;20026;-47
2023/12/29 01:57:53;;;;;;;19.30;11.73;;;;;;;12.43;71.38;99125.44;5093347;28;20119;-47
2023/12/29 02:00:19;;;;;;;19.98;9.90;;;;;;;12.47;71.32;99121.38;5093397;28;20058;-47
2023/12/29 02:02:46;;;;;;;26.23;17.10;;;;;;;12.39;71.33;99128.47;5092216;28;20058;-47
2023/12/29 02:05:17;;;;;;;31.90;18.00;;;;;;;12.37;71.16;99121.78;5108943;28;20490;-47
2023/12/29 02:07:43;;;;;;;35.22;18.60;;;;;;;12.43;71.79;99120.16;5091927;28;20020;-47
2023/12/29 02:10:15;;;;;;;19.35;12.80;;;;;;;12.49;70.70;99141.22;5093419;28;20103;-47
2023/12/29 02:12:41;;;;;;;14.48;7.82;;;;;;;12.53;69.90;99134.53;5093480;28;20185;-47
2023/12/29 02:15:08;;;;;;;17.08;9.45;;;;;;;12.52;69.58;99111.06;5091730;28;20085;-47
2023/12/29 02:17:57;;;;;;;16.00;9.35;;;;;;;12.56;69.26;99105.19;5093081;28;20016;-47
2023/12/29 02:20:23;;;;;;;27.63;14.23;;;;;;;12.58;69.42;99095.25;5093013;28;20028;-47
2023/12/29 02:22:49;;;;;;;13.18;7.68;;;;;;;12.62;68.74;99095.69;5092930;28;20023;-47
2023/12/29 02:25:15;;;;;;;19.65;10.80;;;;;;;12.50;68.63;99121.78;5091623;28;20400;-47
2023/12/29 02:28:02;;;;;;;19.48;10.50;;;;;;;12.36;69.36;99102.53;5092643;28;20043;-47
2023/12/29 02:30:35;;;;;;;16.77;10.40;;;;;;;12.34;69.82;99094.03;5091876;28;20035;-47
2023/12/29 02:33:09;;;;;;;16.75;10.43;;;;;;;12.42;68.73;99113.28;5092782;28;20028;-47
2023/12/29 02:35:40;;;;;;;35.10;16.90;;;;;;;12.39;69.13;99120.59;5091512;28;20051;-47
2023/12/29 02:38:06;;;;;;;15.32;8.32;;;;;;;12.37;69.28;99133.13;5092729;28;20078;-47
2023/12/29 02:40:33;;;;;;;35.92;19.58;;;;;;;12.38;69.44;99134.75;5091318;28;20024;-47
2023/12/29 02:42:58;;;;;;;24.75;13.65;;;;;;;12.37;69.59;99138.41;5092561;28;20028;-47
2023/12/29 02:45:27;;;;;;;23.05;12.73;;;;;;;12.37;70.10;99145.47;5091232;28;20028;-47
2023/12/29 02:47:53;;;;;;;39.28;20.38;;;;;;;12.42;70.21;99139.63;5091247;28;20035;-47
2023/12/29 02:50:19;;;;;;;20.83;10.45;;;;;;;12.49;69.85;99135.16;5091097;28;20028;-47
2023/12/29 02:52:44;;;;;;;11.05;5.97;;;;;;;12.49;69.66;99135.16;5091584;28;20016;-47
2023/12/29 02:55:10;;;;;;;20.45;12.65;;;;;;;12.50;70.14;99134.16;5091369;28;20073;-48
2023/12/29 02:57:36;;;;;;;56.22;26.63;;;;;;;12.49;69.82;99112.25;5092328;28;20534;-47
2023/12/29 03:00:03;;;;;;;10.38;5.45;;;;;;;12.45;69.59;99126.84;5090992;28;20447;-47
2023/12/29 03:02:29;;;;;;;36.22;16.67;;;;;;;12.40;70.03;99126.66;5092262;28;20024;-47
2023/12/29 03:04:55;;;;;;;35.67;18.90;;;;;;;12.44;70.92;99159.47;5092144;28;20043;-47
2023/12/29 03:07:20;;;;;;;22.75;12.63;;;;;;;12.42;70.59;99164.09;5090861;28;20020;-47
2023/12/29 03:09:47;;;;;;;20.42;10.75;;;;;;;12.28;72.31;99167.72;5090908;28;20486;-47
2023/12/29 03:12:13;;;;;;;17.27;8.98;;;;;;;12.21;73.11;99187.94;5090788;28;20028;-47
2023/12/29 03:14:38;;;;;;;38.38;18.92;;;;;;;12.05;74.38;99184.66;5090786;28;20079;-47
2023/12/29 03:17:04;;;;;;;62.00;31.25;;;;;;;12.00;76.55;99179.19;5090695;28;20043;-47
2023/12/29 03:19:30;;;;;;;84.03;40.15;;;;;;;11.88;76.80;99186.00;5091999;28;20016;-47
2023/12/29 03:21:56;;;;;;;22.95;13.05;;;;;;;11.65;78.35;99195.00;5092001;28;20107;-47
2023/12/29 03:24:21;;;;;;;27.98;15.30;;;;;;;11.53;80.55;99199.97;5090530;28;20024;-47
2023/12/29 03:26:47;;;;;;;19.05;10.48;;;;;;;11.58;83.31;99191.50;5090324;28;20020;-47
2023/12/29 03:29:13;;;;;;;38.30;20.77;;;;;;;11.70;84.37;99195.22;5091935;28;20035;-47
2023/12/29 03:31:39;;;;;;;158.77;71.30;;;;;;;11.82;86.56;99199.91;5090563;28;20032;-47
2023/12/29 03:34:05;;;;;;;56.17;26.33;;;;;;;12.13;87.87;99202.91;5092104;28;20448;-47
2023/12/29 03:36:31;;;;;;;97.72;42.75;;;;;;;12.14;88.49;99198.47;5091851;28;20051;-47
2023/12/29 03:38:57;;;;;;;188.20;77.10;;;;;;;12.16;90.22;99194.63;5090560;28;20028;-47
2023/12/29 03:41:23;;;;;;;17.90;10.55;;;;;;;12.36;91.64;99207.03;5090422;28;20402;-47
2023/12/29 03:43:49;;;;;;;42.55;20.85;;;;;;;12.37;91.89;99209.47;5091871;28;20032;-46
2023/12/29 03:46:21;;;;;;;51.30;24.05;;;;;;;12.15;91.13;99195.63;5090421;28;20024;-46
2023/12/29 03:48:50;;;;;;;145.60;63.72;;;;;;;12.17;93.63;99198.88;5090451;28;20401;-46
2023/12/29 03:51:16;;;;;;;44.17;18.40;;;;;;;12.16;93.49;99205.13;5091675;28;20031;-46
2023/12/29 03:53:42;;;;;;;35.88;17.92;;;;;;;11.96;93.53;99209.53;5090286;28;20032;-45
2023/12/29 03:56:09;;;;;;;59.30;25.33;;;;;;;11.74;94.71;99199.06;5090514;28;20024;-46
2023/12/29 03:58:35;;;;;;;36.05;16.00;;;;;;;11.64;95.36;99203.06;5091656;28;20028;-45
2023/12/29 04:01:02;;;;;;;15.50;7.70;;;;;;;11.60;96.43;99202.63;5090639;28;20184;-46
2023/12/29 04:03:27;;;;;;;39.80;18.55;;;;;;;11.53;96.37;99210.50;5090303;28;20107;-46
2023/12/29 04:05:53;;;;;;;75.75;33.28;;;;;;;11.48;96.18;99197.09;5094534;28;20038;-45
2023/12/29 04:08:19;;;;;;;44.17;16.90;;;;;;;11.37;97.43;99208.97;5095583;28;20085;-45
2023/12/29 04:10:45;;;;;;;57.00;24.77;;;;;;;11.22;97.29;99202.19;5095468;28;20028;-45
2023/12/29 04:13:11;;;;;;;55.55;18.92;;;;;;;11.04;98.63;99205.31;5095711;28;20032;-45
2023/12/29 04:15:36;;;;;;;32.20;15.02;;;;;;;10.92;99.92;99205.81;5094088;28;20028;-45
2023/12/29 04:18:02;;;;;;;63.65;23.63;;;;;;;10.84;100.00;99211.19;5095354;28;20016;-45
2023/12/29 04:20:28;;;;;;;95.07;38.10;;;;;;;10.91;100.00;99206.81;5095348;28;20020;-45
2023/12/29 04:22:55;;;;;;;38.42;17.58;;;;;;;10.88;100.00;99207.19;5095456;28;20034;-45
2023/12/29 04:25:20;;;;;;;86.35;32.50;;;;;;;10.84;100.00;99197.25;5093926;28;20024;-45
2023/12/29 04:27:46;;;;;;;46.00;21.00;;;;;;;10.85;100.00;99194.44;5093895;28;20571;-46
2023/12/29 04:30:12;;;;;;;47.25;18.58;;;;;;;10.76;100.00;99185.88;5095227;28;20032;-46
2023/12/29 04:32:38;;;;;;;49.40;19.52;;;;;;;10.63;100.00;99177.09;5093823;28;20077;-46
2023/12/29 04:35:04;;;;;;;90.82;33.53;;;;;;;10.52;100.00;99186.28;5095042;28;20110;-45
2023/12/29 04:37:30;;;;;;;103.38;37.17;;;;;;;10.44;100.00;99178.53;5093793;28;20019;-46
2023/12/29 04:39:56;;;;;;;72.63;27.20;;;;;;;10.51;100.00;99164.47;5094958;28;20016;-45
2023/12/29 04:42:22;;;;;;;113.43;41.97;;;;;;;10.45;100.00;99180.16;5094899;28;20054;-45
2023/12/29 04:44:47;;;;;;;35.53;14.88;;;;;;;10.46;100.00;99158.16;5093786;28;20077;-45
2023/12/29 04:47:13;;;;;;;164.82;59.75;;;;;;;10.46;100.00;99160.78;5094714;28;20405;-45
2023/12/29 04:49:39;;;;;;;67.60;23.70;;;;;;;10.46;100.00;99156.34;5094847;28;20386;-45
2023/12/29 04:52:05;;;;;;;60.40;22.60;;;;;;;10.39;100.00;99139.72;5093431;28;20028;-45
2023/12/29 04:54:31;;;;;;;76.82;26.33;;;;;;;10.32;100.00;99149.34;5093445;28;20107;-45
2023/12/29 04:56:56;;;;;;;38.28;15.98;;;;;;;10.30;100.00;99144.31;5093356;28;20024;-44
2023/12/29 04:59:22;;;;;;;44.72;16.63;;;;;;;10.21;100.00;99134.88;5093285;28;20112;-44
2023/12/29 05:01:48;;;;;;;40.92;16.77;;;;;;;10.17;100.00;99137.06;5094559;28;20045;-45
2023/12/29 05:04:14;;;;;;;55.85;19.60;;;;;;;10.19;100.00;99127.19;5093116;28;20024;-45
2023/12/29 05:06:40;;;;;;;67.47;26.15;;;;;;;10.24;100.00;99136.31;5094473;28;20065;-45
2023/12/29 05:09:06;;;;;;;68.18;24.50;;;;;;;10.27;100.00;99128.91;5093112;28;20027;-45
2023/12/29 05:11:32;;;;;;;46.72;15.48;;;;;;;10.33;100.00;99130.00;5093061;28;20028;-45
2023/12/29 05:13:58;;;;;;;62.95;24.17;;;;;;;10.31;100.00;99130.16;5092981;28;20032;-45
2023/12/29 05:16:24;;;;;;;46.95;16.45;;;;;;;10.32;100.00;99121.31;5091942;28;20024;-45
2023/12/29 05:18:49;;;;;;;38.67;15.07;;;;;;;10.34;100.00;99139.47;5092977;28;20024;-45
2023/12/29 05:21:20;;;;;;;22.70;10.43;;;;;;;10.36;100.00;99133.06;5092891;28;20074;-46
2023/12/29 05:23:47;;;;;;;73.90;23.70;;;;;;;10.40;100.00;99141.34;5094293;28;20443;-46
2023/12/29 05:26:13;;;;;;;37.83;15.07;;;;;;;10.45;100.00;99140.81;5093993;28;20024;-46
2023/12/29 05:28:38;;;;;;;13.75;7.53;;;;;;;10.50;100.00;99128.75;5092615;28;20417;-46
2023/12/29 05:31:04;;;;;;;11.65;5.78;;;;;;;10.61;100.00;99145.78;5092656;28;20063;-46
2023/12/29 05:33:31;;;;;;;7.68;5.40;;;;;;;10.66;100.00;99145.22;5094018;28;20035;-46
2023/12/29 05:35:57;;;;;;;11.48;5.53;;;;;;;10.67;100.00;99138.97;5092638;28;20031;-46
2023/12/29 05:38:23;;;;;;;13.85;5.68;;;;;;;10.73;100.00;99144.25;5093858;28;20371;-46
2023/12/29 05:40:48;;;;;;;7.95;4.70;;;;;;;10.76;100.00;99140.44;5092516;28;20028;-46
2023/12/29 05:43:15;;;;;;;6.85;5.28;;;;;;;10.67;100.00;99121.41;5092348;28;20032;-46
2023/12/29 05:45:41;;;;;;;5.57;4.03;;;;;;;10.54;100.00;99116.88;5092447;28;20032;-46
2023/12/29 05:48:07;;;;;;;5.00;3.72;;;;;;;10.45;100.00;99120.63;5093689;28;20463;-45
2023/12/29 05:50:33;;;;;;;7.90;4.68;;;;;;;10.33;100.00;99116.88;5092313;28;20501;-45
2023/12/29 05:52:59;;;;;;;7.80;4.78;;;;;;;10.17;100.00;99115.28;5093574;28;20020;-45
2023/12/29 05:55:24;;;;;;;7.03;4.97;;;;;;;10.07;100.00;99136.56;5093492;28;20439;-45
2023/12/29 05:57:50;;;;;;;8.48;5.95;;;;;;;10.04;100.00;99126.47;5093504;28;20039;-45
2023/12/29 06:00:16;;;;;;;6.38;5.55;;;;;;;10.04;100.00;99120.38;5093400;28;20530;-46
2023/12/29 06:02:42;;;;;;;6.75;5.78;;;;;;;10.06;100.00;99150.69;5093435;28;20028;-46
2023/12/29 06:05:12;;;;;;;7.85;6.22;;;;;;;10.15;100.00;99135.63;5093277;28;20032;-46
2023/12/29 06:07:38;;;;;;;5.20;4.55;;;;;;;10.22;100.00;99141.75;5093243;28;20039;-46
2023/12/29 06:10:04;;;;;;;6.18;5.47;;;;;;;10.29;100.00;99144.44;5091914;28;20024;-46
2023/12/29 06:12:30;;;;;;;6.82;5.30;;;;;;;10.34;100.00;99144.72;5093237;28;20027;-47
2023/12/29 06:14:56;;;;;;;6.07;5.47;;;;;;;10.40;100.00;99151.84;5093183;28;20405;-47
2023/12/29 06:17:21;;;;;;;17.00;15.27;;;;;;;10.50;100.00;99149.75;5091757;28;20024;-46
2023/12/29 06:19:47;;;;;;;21.30;18.38;;;;;;;10.64;100.00;99149.84;5093085;28;20027;-47
2023/12/29 06:22:14;;;;;;;13.02;10.95;;;;;;;11.05;100.00;99149.16;5091695;28;20103;-46
2023/12/29 06:24:40;;;;;;;52.90;45.75;;;;;;;11.39;100.00;99143.91;5091535;28;20031;-46
2023/12/29 06:27:10;;;;;;;48.65;43.47;;;;;;;11.37;100.00;99142.47;5092503;28;20058;-46
2023/12/29 06:29:36;;;;;;;8.30;6.43;;;;;;;11.31;100.00;99128.28;5091571;28;20082;-46
2023/12/29 06:32:03;;;;;;;35.05;31.30;;;;;;;11.10;100.00;99136.25;5091476;28;20032;-47
2023/12/29 06:34:28;;;;;;;59.08;50.20;;;;;;;10.86;100.00;99129.63;5092871;28;20024;-46
2023/12/29 06:36:54;;;;;;;15.98;14.20;;;;;;;10.75;100.00;99136.22;5091402;28;20077;-46
2023/12/29 06:39:20;;;;;;;19.20;16.92;;;;;;;10.63;100.00;99135.09;5091450;28;20533;-46
2023/12/29 06:41:46;;;;;;;15.32;13.48;;;;;;;10.54;100.00;99137.03;5091364;28;20020;-47
2023/12/29 06:44:11;;;;;;;14.27;11.88;;;;;;;10.44;100.00;99132.09;5108295;28;20023;-47
2023/12/29 06:46:38;;;;;;;6.75;5.82;;;;;;;10.40;100.00;99136.09;5092578;28;20058;-46
2023/12/29 06:49:03;;;;;;;7.82;6.25;;;;;;;10.32;100.00;99130.97;5092557;28;20397;-48
2023/12/29 06:51:29;;;;;;;10.18;5.97;;;;;;;10.29;100.00;99133.97;5091152;28;20027;-49
2023/12/29 06:53:55;;;;;;;8.80;6.15;;;;;;;10.32;100.00;99141.47;5091185;28;20024;-48
2023/12/29 06:56:21;;;;;;;7.80;5.32;;;;;;;10.26;100.00;99129.91;5091065;28;20024;-48
2023/12/29 06:58:47;;;;;;;7.15;6.40;;;;;;;10.19;100.00;99131.63;5092421;28;20046;-49
2023/12/29 07:01:13;;;;;;;11.57;5.28;;;;;;;10.14;100.00;99139.25;5092292;28;20069;-49
2023/12/29 07:03:39;;;;;;;6.18;4.78;;;;;;;10.08;100.00;99137.38;5092147;28;20036;-48
2023/12/29 07:06:05;;;;;;;6.75;5.53;;;;;;;10.02;100.00;99144.19;5090848;28;20028;-49
2023/12/29 07:08:31;;;;;;;6.97;5.43;;;;;;;9.99;100.00;99144.53;5092175;28;20513;-49
2023/12/29 07:10:56;;;;;;;10.18;5.13;;;;;;;9.98;100.00;99132.44;5092407;28;20028;-49
2023/12/29 07:13:22;;;;;;;6.55;4.90;;;;;;;9.98;100.00;99135.06;5090843;28;20512;-49
2023/12/29 07:15:48;;;;;;;8.32;6.15;;;;;;;9.98;100.00;99142.94;5090888;28;20016;-49
2023/12/29 07:18:14;;;;;;;5.55;4.82;;;;;;;9.96;100.00;99145.72;5091001;28;20502;-49
2023/12/29 07:20:41;;;;;;;6.78;3.75;;;;;;;9.93;100.00;99150.53;5092065;28;20491;-49
2023/12/29 07:23:07;;;;;;;7.00;4.70;;;;;;;9.93;100.00;99132.16;5091876;28;20020;-49
2023/12/29 07:25:33;;;;;;;8.57;6.70;;;;;;;10.12;100.00;99143.84;5092217;28;20045;-49
2023/12/29 07:27:58;;;;;;;9.02;6.65;;;;;;;10.63;100.00;99140.34;5091687;28;20040;-49
2023/12/29 07:30:25;;;;;;;7.43;6.55;;;;;;;10.99;100.00;99146.28;5091896;28;20432;-49
2023/12/29 07:32:51;;;;;;;6.82;5.80;;;;;;;11.20;100.00;99147.22;5092130;28;20476;-49
2023/12/29 07:35:19;;;;;;;6.43;5.63;;;;;;;11.19;100.00;99142.97;5090459;28;20028;-49
2023/12/29 07:37:46;;;;;;;9.25;6.18;;;;;;;11.34;100.00;99134.97;5091796;28;20020;-49
2023/12/29 07:40:12;;;;;;;8.57;5.78;;;;;;;11.40;100.00;99139.44;5089883;28;20042;-49
2023/12/29 07:42:42;;;;;;;6.97;4.40;;;;;;;11.48;100.00;99152.44;5091741;28;20110;-49
2023/12/29 07:45:09;;;;;;;5.45;4.57;;;;;;;11.50;100.00;99147.78;5091955;28;20417;-49
2023/12/29 07:47:34;;;;;;;9.48;6.07;;;;;;;11.53;100.00;99157.94;5090689;28;20028;-49
2023/12/29 07:50:01;;;;;;;12.18;5.97;;;;;;;11.94;100.00;99151.84;5090545;28;20028;-49
2023/12/29 07:52:27;;;;;;;7.53;5.18;;;;;;;12.27;100.00;99145.03;5090399;28;20020;-49
2023/12/29 07:54:52;;;;;;;11.95;5.18;;;;;;;12.68;100.00;99165.16;5090613;28;20119;-49
2023/12/29 07:57:18;;;;;;;9.43;5.35;;;;;;;12.73;100.00;99174.03;5091569;28;20062;-49
2023/12/29 07:59:44;;;;;;;8.13;4.40;;;;;;;12.69;100.00;99182.56;5091582;28;20031;-49
2023/12/29 08:02:10;;;;;;;9.95;4.90;;;;;;;12.45;99.91;99173.41;5091613;28;20389;-49
2023/12/29 08:04:35;;;;;;;16.40;5.90;;;;;;;12.32;99.88;99179.47;5091586;28;20017;-49
2023/12/29 08:07:01;;;;;;;17.27;5.85;;;;;;;12.34;99.85;99190.63;5091558;28;20028;-49
2023/12/29 08:09:27;;;;;;;13.50;5.32;;;;;;;12.16;99.15;99205.13;5090244;28;20099;-49
2023/12/29 08:11:53;;;;;;;12.23;7.35;;;;;;;12.03;98.77;99199.81;5090416;28;20050;-49
2023/12/29 08:14:19;;;;;;;13.18;5.75;;;;;;;11.80;98.25;99194.84;5090120;28;20055;-49
2023/12/29 08:16:44;;;;;;;16.08;7.78;;;;;;;11.72;98.85;99202.91;5091440;28;20028;-49
2023/12/29 08:19:10;;;;;;;10.20;5.38;;;;;;;11.58;98.36;99186.25;5090420;28;20024;-49
2023/12/29 08:21:36;;;;;;;6.82;3.95;;;;;;;12.04;100.00;99193.56;5091699;28;20025;-49
2023/12/29 08:24:02;;;;;;;9.48;4.95;;;;;;;12.33;98.10;99194.25;5091276;28;20020;-49
2023/12/29 08:26:29;;;;;;;10.20;6.18;;;;;;;12.65;96.77;99197.94;5090062;28;20032;-49
2023/12/29 08:28:54;;;;;;;13.65;6.15;;;;;;;13.45;93.02;99202.41;5071173;28;20025;-49
2023/12/29 08:31:22;;;;;;;13.65;5.68;;;;;;;14.10;88.80;99197.91;5071116;28;20112;-49
2023/12/29 08:33:48;;;;;;;49.28;30.55;;;;;;;14.57;87.09;99187.94;5071149;28;20103;-49
2023/12/29 08:36:18;;;;;;;27.45;24.35;;;;;;;15.22;85.71;99191.28;5071555;28;20049;-49
2023/12/29 08:38:44;;;;;;;18.77;15.32;;;;;;;15.80;83.22;99193.56;5070012;28;20089;-49
2023/12/29 08:41:13;;;;;;;43.55;39.10;;;;;;;16.25;nan;99192.38;5070994;28;20028;-47
2023/12/29 08:43:39;;;;;;;23.08;19.67;;;;;;;16.68;79.93;99189.53;5070932;28;20071;-47
2023/12/29 08:46:04;;;;;;;11.60;7.78;;;;;;;17.07;79.91;99189.13;5070988;28;20021;-47
2023/12/29 08:48:30;;;;;;;33.25;16.10;;;;;;;17.34;75.83;99187.63;5070959;28;20435;-47
2023/12/29 08:50:56;;;;;;;36.75;14.63;;;;;;;17.57;75.22;99191.28;5071836;28;20032;-47
2023/12/29 08:53:21;;;;;;;18.98;7.10;;;;;;;17.87;73.12;99185.03;5074528;28;20050;-47
2023/12/29 08:55:47;;;;;;;6.47;4.63;;;;;;;18.10;69.66;99178.81;5074655;28;20028;-47
2023/12/29 08:58:15;;;;;;;5.55;4.25;;;;;;;18.22;67.05;99182.22;5074431;28;20032;-47
2023/12/29 09:00:41;;;;;;;9.52;3.88;;;;;;;18.01;67.77;99183.72;5073090;28;20495;-47
2023/12/29 09:03:07;;;;;;;6.35;3.67;;;;;;;17.76;67.25;99181.31;5074194;28;20078;-45
2023/12/29 09:05:33;;;;;;;8.05;3.63;;;;;;;17.33;64.29;99175.38;5073003;28;20024;-47
2023/12/29 09:07:59;;;;;;;5.63;3.25;;;;;;;16.76;62.77;99183.06;5074306;28;20039;-47
2023/12/29 09:10:24;;;;;;;7.57;2.90;;;;;;;16.52;64.10;99185.69;5074191;28;20483;-47
2023/12/29 09:12:50;;;;;;;5.22;3.65;;;;;;;16.51;65.03;99184.03;5074197;28;20093;-47
2023/12/29 09:15:16;;;;;;;4.82;3.17;;;;;;;17.16;64.44;99179.78;5072800;28;20033;-47
2023/12/29 09:17:42;;;;;;;2.92;2.63;;;;;;;17.23;61.46;99179.69;5072750;28;20043;-47
2023/12/29 09:20:09;;;;;;;3.95;2.83;;;;;;;17.14;60.71;99179.19;5072716;28;20033;-47
2023/12/29 09:22:35;;;;;;;4.90;2.95;;;;;;;17.17;60.32;99176.91;5074103;28;20030;-47
2023/12/29 09:25:01;;;;;;;5.22;2.78;;;;;;;17.20;59.48;99178.28;5072451;28;20029;-47
2023/12/29 09:27:27;;;;;;;4.45;3.03;;;;;;;17.37;60.38;99176.53;5080298;28;20105;-47
2023/12/29 09:29:52;;;;;;;6.82;3.85;;;;;;;17.64;58.99;99185.84;5094014;28;20501;-47
2023/12/29 09:32:18;;;;;;;6.82;3.50;;;;;;;17.99;58.61;99183.13;5093982;28;20036;-47
2023/12/29 09:34:44;;;;;;;3.70;2.60;;;;;;;18.55;58.83;99188.63;5093949;28;20047;-47
2023/12/29 09:37:10;;;;;;;7.20;3.42;;;;;;;19.63;56.72;99175.09;5093963;28;20028;-47
2023/12/29 09:39:35;;;;;;;7.88;2.85;;;;;;;20.57;54.72;99167.84;5093873;28;20405;-47
2023/12/29 09:42:03;;;;;;;3.60;2.58;;;;;;;20.80;50.77;99172.03;5093838;28;20402;-47
2023/12/29 09:44:31;;;;;;;4.40;3.05;;;;;;;20.60;49.82;99172.69;5093698;28;20486;-47
2023/12/29 09:47:09;;;;;;;4.88;2.30;;;;;;;20.21;50.57;99177.38;5092525;28;20031;-47
2023/12/29 09:49:40;;;;;;;5.65;2.65;;;;;;;19.56;51.27;99177.94;5092488;28;20028;-47
2023/12/29 09:52:09;;;;;;;3.78;2.22;;;;;;;18.71;50.52;99187.03;5093640;28;20032;-47
2023/12/29 09:54:36;;;;;;;9.52;3.53;;;;;;;18.84;53.99;99186.75;5093573;28;20051;-47
2023/12/29 09:57:04;;;;;;;4.53;3.13;;;;;;;19.18;51.79;99183.28;5093479;28;20482;-47
2023/12/29 09:59:36;;;;;;;3.38;3.03;;;;;;;20.14;51.65;99182.88;5093499;28;20047;-48
2023/12/29 10:02:04;;;;;;;5.00;2.53;;;;;;;20.79;48.17;99175.78;5092962;28;20107;-47
2023/12/29 10:04:31;;;;;;;4.05;2.70;;;;;;;21.09;47.41;99169.84;5092328;28;20035;-47
2023/12/29 10:07:07;;;;;;;5.20;2.65;;;;;;;21.01;47.61;99167.66;5093374;28;20447;-47
2023/12/29 10:09:36;;;;;;;3.92;2.45;;;;;;;21.61;46.87;99162.13;5093289;28;20028;-48
2023/12/29 10:12:03;;;;;;;6.07;2.38;;;;;;;22.17;43.95;99164.97;5093168;28;20500;-48
2023/12/29 10:14:41;;;;;;;5.80;2.67;;;;;;;21.80;44.35;99160.59;5091934;28;20114;-46
2023/12/29 10:17:17;;;;;;;5.72;2.47;;;;;;;22.16;44.66;99155.34;5093194;28;20042;-47
2023/12/29 10:19:58;;;;;;;3.15;2.00;;;;;;;21.64;40.19;99151.72;5091850;28;20032;-47
2023/12/29 10:23:08;;;;;;;2.85;2.40;;;;;;;21.02;43.84;99157.78;5093105;28;20035;-47
2023/12/29 10:25:34;;;;;;;3.13;2.03;;;;;;;20.27;42.79;99158.50;5092842;28;20042;-48
2023/12/29 10:28:00;;;;;;;4.07;2.28;;;;;;;20.10;43.94;99160.44;5092681;28;20122;-47
2023/12/29 10:30:26;;;;;;;28.63;3.63;;;;;;;20.45;44.33;99160.00;5091569;28;20053;-47
2023/12/29 10:32:52;;;;;;;3.40;2.20;;;;;;;20.51;42.38;99145.66;5091536;28;20043;-47
2023/12/29 10:35:19;;;;;;;22.77;2.90;;;;;;;20.56;42.60;99144.88;5091453;28;20028;-47
2023/12/29 10:37:45;;;;;;;2.35;1.90;;;;;;;20.30;41.78;99141.19;5091484;28;20086;-47
2023/12/29 10:40:18;;;;;;;6.03;2.22;;;;;;;19.69;43.25;99139.47;5092717;28;20024;-47
2023/12/29 10:42:55;;;;;;;54.13;4.82;;;;;;;19.25;45.77;99133.34;5091457;28;20405;-47
2023/12/29 10:45:22;;;;;;;3.80;2.28;;;;;;;19.27;43.85;99128.56;5091301;28;20032;-47
2023/12/29 10:47:48;;;;;;;3.00;2.30;;;;;;;19.34;45.08;99142.53;5092531;28;20453;-47
2023/12/29 10:50:14;;;;;;;4.00;2.47;;;;;;;19.50;45.88;99140.88;5092440;28;20169;-47
2023/12/29 10:52:42;;;;;;;7.00;2.40;;;;;;;19.51;47.13;99135.28;5092568;28;20097;-47
2023/12/29 10:55:11;;;;;;;4.38;2.40;;;;;;;19.71;44.86;99129.41;5092391;28;20028;-48
2023/12/29 10:57:38;;;;;;;2.78;2.40;;;;;;;19.94;43.16;99119.53;5091146;28;20523;-48
2023/12/29 11:00:07;;;;;;;4.53;1.90;;;;;;;20.46;43.08;99102.94;5091013;28;20028;-47
2023/12/29 11:02:34;;;;;;;2.90;2.15;;;;;;;20.96;42.21;99100.91;5092264;28;20024;-48
2023/12/29 11:05:07;;;;;;;3.72;1.85;;;;;;;20.78;40.90;99093.34;5090897;28;20035;-48
2023/12/29 11:07:37;;;;;;;2.33;1.88;;;;;;;20.80;40.87;99089.34;5090953;28;20033;-48
2023/12/29 11:10:05;;;;;;;5.20;2.55;;;;;;;19.91;42.43;99088.06;5090887;28;20043;-47
2023/12/29 11:12:36;;;;;;;3.88;1.95;;;;;;;19.00;44.14;99088.59;5092146;28;20024;-47
2023/12/29 11:15:04;;;;;;;4.80;2.53;;;;;;;18.53;45.44;99097.69;5090282;28;20032;-47
2023/12/29 11:17:34;;;;;;;5.22;2.70;;;;;;;18.14;46.47;99101.06;5092418;28;20020;-47
2023/12/29 11:20:02;;;;;;;4.60;2.08;;;;;;;17.93;47.61;99088.47;5091085;28;20036;-47